MDT,Max TemperatureF,Mean TemperatureF,Min TemperatureF,Max Dew PointF,MeanDew PointF,Min DewpointF,Max Humidity, Mean Humidity, Min Humidity, Max Sea Level PressureIn, Mean Sea Level PressureIn, Min Sea Level PressureIn, Max VisibilityMiles, Mean VisibilityMiles, Min VisibilityMiles, Max Wind SpeedMPH, Mean Wind SpeedMPH, Max Gust SpeedMPH,PrecipitationIn, CloudCover, Events, WindDirDegrees
2013-5-1,57,44,30,34,23,10,87,51,17,30.42,30.14,29.85,10,9,2,23,12,37,0.02,3,,252
2013-5-2,48,32,17,14,7,0,68,37,16,30.57,30.50,30.43,10,10,10,18,5,26,0.00,0,,338
2013-5-3,60,38,17,12,9,3,73,34,12,30.49,30.29,30.10,10,10,10,16,3,25,0.00,0,,259
2013-5-4,60,40,21,27,15,9,74,37,13,30.18,30.11,30.03,10,10,10,29,5,38,0.00,2,,60
2013-5-5,59,47,35,28,23,16,65,41,19,30.19,30.16,30.13,10,10,10,16,7,22,0.00,2,,1
2013-5-6,55,47,39,37,32,27,81,62,36,30.17,30.13,30.06,10,10,7,15,8,25,0.11,5,Thunderstorm,39
2013-5-7,53,44,35,37,34,25,93,72,33,30.18,30.14,30.09,10,10,4,14,3,16,0.04,6,Thunderstorm,9
2013-5-8,48,42,35,34,32,27,93,73,43,30.18,30.13,30.09,10,10,9,16,5,17,0.05,5,,20
2013-5-9,51,42,33,34,31,28,93,70,41,30.31,30.21,30.16,10,9,3,16,4,29,0.14,5,,70
2013-5-10,57,42,28,32,28,25,93,59,31,30.45,30.34,30.29,10,10,10,17,5,26,0.00,1,,62
2013-5-11,62,46,30,30,26,19,93,51,22,30.54,30.46,30.39,10,10,10,18,3,28,0.00,1,,338
2013-5-12,68,52,35,30,28,23,75,44,19,30.51,30.43,30.35,10,10,10,13,4,20,0.00,2,,323
2013-5-13,71,52,33,36,31,27,81,49,19,30.52,30.43,30.35,10,10,10,14,2,23,0.00,1,,261
2013-5-14,71,53,35,43,34,27,81,52,20,30.38,30.29,30.19,10,10,10,22,4,29,0.00,2,,22
2013-5-15,69,53,37,41,37,30,87,61,24,30.26,30.19,30.08,10,10,10,24,4,30,0.00,2,Thunderstorm,25
2013-5-16,71,53,35,37,30,21,93,50,16,30.20,30.13,30.04,10,10,5,21,5,25,0.00,1,,254
2013-5-17,73,54,35,30,22,10,75,35,11,30.19,30.11,30.02,10,10,10,21,3,28,0.00,0,,278
2013-5-18,62,48,33,34,26,18,70,48,19,30.16,30.11,30.01,10,10,10,21,3,31,0.00,2,,258
2013-5-19,51,43,33,36,31,28,93,73,41,30.11,30.08,30.04,10,10,5,18,5,29,0.10,4,Thunderstorm,313
2013-5-20,55,42,30,36,31,27,93,68,35,30.20,30.12,30.07,10,10,10,24,4,36,0.04,6,,283
2013-5-21,62,46,30,32,27,19,87,51,20,30.23,30.14,30.06,10,10,10,22,4,28,0.00,2,,301
2013-5-22,71,52,32,30,25,19,81,39,16,30.14,30.07,29.99,10,10,10,18,5,26,0.00,1,,73
2013-5-23,75,55,35,30,22,16,65,30,11,30.16,30.09,30.03,10,10,10,23,8,32,0.00,0,,258
2013-5-24,73,53,33,25,20,14,70,31,11,30.25,30.19,30.13,10,10,10,16,5,25,0.00,0,,275
2013-5-25,73,53,33,25,20,12,70,31,11,30.29,30.21,30.12,10,10,10,15,3,24,0.00,0,,241
2013-5-26,73,54,35,30,21,10,70,31,12,30.26,30.17,30.07,10,10,10,18,4,23,0.00,0,,266
2013-5-27,71,52,33,28,19,10,65,31,12,30.18,30.09,29.98,10,10,10,21,4,30,0.00,0,,281
2013-5-28,69,51,33,28,23,19,65,36,16,30.05,29.94,29.82,10,10,10,16,3,23,0.00,1,,324
2013-5-29,57,48,39,37,30,21,87,52,26,29.96,29.89,29.84,10,10,9,23,9,37,0.02,4,,249
2013-5-30,62,47,32,28,21,16,75,38,16,30.09,29.99,29.94,10,10,10,26,10,39,0.00,1,,285
2013-5-31,60,51,42,25,14,3,40,23,13,30.25,30.15,30.08,10,10,10,25,11,40,0.00,2,,271